Time;durP1;ratioP1;P1;durP2;ratioP2;P2;SDS_P1;SDS_P2;PMS_P1;PMS_P2;Temp;Humidity;BMP_temperature;BMP_pressure;BME280_temperature;BME280_humidity;BME280_pressure;Samples;Min_cycle;Max_cycle;Signal;HPM_P1;HPM_P2
2022/05/28 06:21:43;;;;;;;4.83;3.10;;;;;;;;;;7381912;19;20188;-82
2022/05/28 06:24:09;;;;;;;3.63;2.80;;;;;;;;;;7383365;19;20172;-79
2022/05/28 06:26:37;;;;;;;4.03;3.03;;;;;;;;;;7384554;19;20169;-81
2022/05/28 06:29:03;;;;;;;3.40;3.10;;;;;;;;;;7383673;19;20164;-82
2022/05/28 06:31:29;;;;;;;3.07;2.67;;;;;;;;;;7383802;19;20141;-81
2022/05/28 06:33:55;;;;;;;4.47;2.77;;;;;;;;;;7384486;19;20590;-78
2022/05/28 06:36:21;;;;;;;3.83;3.10;;;;;;;;;;7385264;19;20176;-78
2022/05/28 06:38:47;;;;;;;3.83;3.20;;;;;;;;;;7386142;19;20176;-81
2022/05/28 06:41:13;;;;;;;3.77;3.10;;;;;;;;;;7386879;19;20610;-80
2022/05/28 06:43:39;;;;;;;4.33;2.90;;;;;;;;;;7384174;19;20555;-79
2022/05/28 06:46:06;;;;;;;4.20;2.83;;;;;;;;;;7384069;19;20629;-80
2022/05/28 06:48:32;;;;;;;4.40;3.23;;;;;;;;;;7383577;19;20152;-80
2022/05/28 06:51:01;;;;;;;5.83;2.90;;;;;;;;;;7388447;19;20150;-78
2022/05/28 06:53:32;;;;;;;6.50;2.83;;;;;;;;;;7385512;19;20688;-78
2022/05/28 06:55:58;;;;;;;5.77;2.90;;;;;;;;;;7378256;19;20191;-79
2022/05/28 06:58:24;;;;;;;3.53;2.70;;;;;;;;;;7381399;19;20544;-78
2022/05/28 07:00:50;;;;;;;4.93;2.80;;;;;;;;;;7403940;19;20140;-79
2022/05/28 07:03:18;;;;;;;3.20;2.90;;;;;;;;;;7416803;19;20196;-80
2022/05/28 07:05:44;;;;;;;5.50;3.30;;;;;;;;;;7420777;19;20173;-79
2022/05/28 07:08:10;;;;;;;4.20;2.67;;;;;;;;;;7421984;19;20125;-79
2022/05/28 07:10:38;;;;;;;4.03;2.40;;;;;;;;;;7420148;19;20464;-77
2022/05/28 07:13:05;;;;;;;3.30;2.60;;;;;;;;;;7402725;19;20149;-80
2022/05/28 07:15:31;;;;;;;3.97;2.50;;;;;;;;;;7391996;19;20662;-79
2022/05/28 07:17:57;;;;;;;3.60;2.77;;;;;;;;;;7389306;19;20133;-80
2022/05/28 07:20:23;;;;;;;3.57;3.00;;;;;;;;;;7387149;19;20164;-80
2022/05/28 07:22:49;;;;;;;5.33;2.80;;;;;;;;;;7389139;19;20351;-80
2022/05/28 07:25:15;;;;;;;3.13;2.60;;;;;;;;;;7388430;19;20172;-80
2022/05/28 07:27:41;;;;;;;2.60;2.40;;;;;;;;;;7396057;19;20163;-80
2022/05/28 07:30:07;;;;;;;4.17;2.63;;;;;;;;;;7400389;19;20188;-78
2022/05/28 07:32:33;;;;;;;4.80;2.53;;;;;;;;;;7402420;19;20153;-78
2022/05/28 07:34:59;;;;;;;4.13;2.30;;;;;;;;;;7395856;19;20173;-78
2022/05/28 07:37:25;;;;;;;3.13;2.60;;;;;;;;;;7396631;19;20145;-79
2022/05/28 07:39:52;;;;;;;5.20;3.07;;;;;;;;;;7401807;19;20212;-77
2022/05/28 07:42:18;;;;;;;2.50;2.23;;;;;;;;;;7396411;19;20136;-80
2022/05/28 07:44:44;;;;;;;4.23;2.73;;;;;;;;;;7393626;19;20141;-80
2022/05/28 07:47:10;;;;;;;3.40;2.60;;;;;;;;;;7394423;19;20619;-80
2022/05/28 07:49:36;;;;;;;99.97;11.47;;;;;;;;;;7391620;19;20140;-79
2022/05/28 07:52:02;;;;;;;4.63;3.10;;;;;;;;;;7392428;19;20551;-79
2022/05/28 07:54:28;;;;;;;4.97;2.30;;;;;;;;;;7390848;19;20152;-79
2022/05/28 07:56:54;;;;;;;3.20;2.80;;;;;;;;;;7392006;19;20149;-79
2022/05/28 07:59:21;;;;;;;5.10;2.60;;;;;;;;;;7390330;19;20162;-79
2022/05/28 08:01:47;;;;;;;2.97;2.40;;;;;;;;;;7392434;19;20212;-78
2022/05/28 08:04:13;;;;;;;2.80;2.40;;;;;;;;;;7391838;19;20140;-78
2022/05/28 08:06:40;;;;;;;6.03;2.60;;;;;;;;;;7387692;19;20169;-78
2022/05/28 08:09:07;;;;;;;4.07;2.70;;;;;;;;;;7389022;19;20171;-78
2022/05/28 08:11:33;;;;;;;7.00;2.97;;;;;;;;;;7409944;19;20156;-79
2022/05/28 08:13:59;;;;;;;4.63;2.77;;;;;;;;;;7416995;19;20227;-80
2022/05/28 08:16:25;;;;;;;3.50;2.70;;;;;;;;;;7401396;19;20152;-77
2022/05/28 08:18:51;;;;;;;3.40;2.80;;;;;;;;;;7390352;19;20140;-78
2022/05/28 08:24:03;;;;;;;4.45;2.38;;;;;;;;;;7388685;19;20140;-79
2022/05/28 08:26:29;;;;;;;6.05;3.85;;;;;;;;;;7397558;19;20179;-78
2022/05/28 08:28:55;;;;;;;5.03;2.65;;;;;;;;;;7405877;19;20137;-80
2022/05/28 08:31:22;;;;;;;3.53;2.42;;;;;;;;;;7408933;19;20148;-79
2022/05/28 08:33:48;;;;;;;6.90;4.28;;;;;;;;;;7404741;19;20196;-79
2022/05/28 08:36:14;;;;;;;5.63;2.50;;;;;;;;;;7382578;19;20197;-79
2022/05/28 08:38:40;;;;;;;2.83;2.60;;;;;;;;;;7387826;19;20129;-79
2022/05/28 08:41:14;;;;;;;2.92;2.45;;;;;;;;;;7389356;19;20181;-75
2022/05/28 08:43:45;;;;;;;4.15;2.40;;;;;;;;;;7399907;19;20151;-78
2022/05/28 08:46:13;;;;;;;5.47;2.55;;;;;;;;;;7407021;19;20697;-79
2022/05/28 08:48:45;;;;;;;3.30;2.10;;;;;;;;;;7407100;19;20164;-78
2022/05/28 08:51:15;;;;;;;3.72;2.22;;;;;;;;;;7402825;19;20144;-79
2022/05/28 08:53:46;;;;;;;3.67;2.20;;;;;;;;;;7389380;19;20136;-81
2022/05/28 08:56:15;;;;;;;2.55;2.35;;;;;;;;;;7383822;19;20184;-80
2022/05/28 08:58:41;;;;;;;6.43;2.58;;;;;;;;;;7384530;19;20618;-80
2022/05/28 09:01:27;;;;;;;3.33;2.42;;;;;;;;;;7389866;19;20156;-79
2022/05/28 09:03:56;;;;;;;4.65;2.22;;;;;;;;;;7388683;19;20145;-80
2022/05/28 09:06:30;;;;;;;5.43;2.40;;;;;;;;;;7389569;19;20172;-79
2022/05/28 09:08:57;;;;;;;4.57;2.33;;;;;;;;;;7389494;19;20155;-80
2022/05/28 09:11:32;;;;;;;5.07;2.85;;;;;;;;;;7391426;19;20160;-80
2022/05/28 09:14:00;;;;;;;3.33;2.58;;;;;;;;;;7386605;19;20148;-80
2022/05/28 09:16:30;;;;;;;7.18;2.42;;;;;;;;;;7388321;19;21172;-80
2022/05/28 09:19:00;;;;;;;2.75;1.98;;;;;;;;;;7391679;19;20705;-79
2022/05/28 09:21:26;;;;;;;2.60;2.40;;;;;;;;;;7392644;19;20603;-79
2022/05/28 09:23:55;;;;;;;2.78;2.30;;;;;;;;;;7400071;19;20132;-80
2022/05/28 09:26:27;;;;;;;3.80;2.58;;;;;;;;;;7388775;19;20613;-79
2022/05/28 09:29:05;;;;;;;3.35;2.17;;;;;;;;;;7391430;19;20152;-80
2022/05/28 09:31:34;;;;;;;6.32;2.28;;;;;;;;;;7390944;19;20167;-79
2022/05/28 09:34:10;;;;;;;3.40;2.40;;;;;;;;;;7390820;19;20140;-80
2022/05/28 09:36:40;;;;;;;2.40;2.20;;;;;;;;;;7388908;19;20148;-79
2022/05/28 09:39:12;;;;;;;2.95;2.65;;;;;;;;;;7386409;19;20556;-80
2022/05/28 09:41:57;;;;;;;3.33;2.58;;;;;;;;;;7388310;19;20169;-80
2022/05/28 09:44:25;;;;;;;3.55;2.50;;;;;;;;;;7386664;19;20160;-81
2022/05/28 09:46:51;;;;;;;3.97;2.42;;;;;;;;;;7389317;19;20573;-81
2022/05/28 09:49:19;;;;;;;3.75;2.72;;;;;;;;;;7388370;19;20154;-80
2022/05/28 09:52:04;;;;;;;5.70;2.83;;;;;;;;;;7388744;19;20132;-80
2022/05/28 09:54:33;;;;;;;4.22;3.25;;;;;;;;;;7390410;19;20133;-81
2022/05/28 09:57:20;;;;;;;4.85;2.83;;;;;;;;;;7375349;19;20168;-80
2022/05/28 09:59:49;;;;;;;2.67;2.30;;;;;;;;;;7383104;19;20163;-80
2022/05/28 10:02:21;;;;;;;3.83;2.50;;;;;;;;;;7378261;19;20521;-80
2022/05/28 10:04:53;;;;;;;4.82;2.55;;;;;;;;;;7384254;19;20156;-80
2022/05/28 10:07:48;;;;;;;4.80;2.78;;;;;;;;;;7376873;19;20148;-80
2022/05/28 10:10:20;;;;;;;4.63;2.60;;;;;;;;;;7385914;19;20233;-78
2022/05/28 10:12:46;;;;;;;4.55;2.60;;;;;;;;;;7384620;19;20188;-78
2022/05/28 10:15:14;;;;;;;6.40;2.58;;;;;;;;;;7385121;19;20180;-78
2022/05/28 10:17:43;;;;;;;3.90;2.47;;;;;;;;;;7384007;19;20156;-78
2022/05/28 10:20:17;;;;;;;2.50;2.20;;;;;;;;;;7387666;19;20129;-78
2022/05/28 10:22:43;;;;;;;4.03;2.35;;;;;;;;;;7386850;19;20135;-78
2022/05/28 10:25:33;;;;;;;2.95;2.03;;;;;;;;;;7385129;19;20165;-78
2022/05/28 10:27:59;;;;;;;4.47;2.35;;;;;;;;;;7387437;19;20152;-78
2022/05/28 10:30:41;;;;;;;2.75;2.30;;;;;;;;;;7384947;19;20173;-79
2022/05/28 10:33:21;;;;;;;4.32;2.72;;;;;;;;;;7382680;19;20143;-78
2022/05/28 10:35:47;;;;;;;4.43;2.20;;;;;;;;;;7387339;19;20153;-78
2022/05/28 10:38:15;;;;;;;2.80;2.58;;;;;;;;;;7385731;19;20195;-78
2022/05/28 10:40:49;;;;;;;5.07;2.65;;;;;;;;;;7384889;19;20636;-79
2022/05/28 10:43:23;;;;;;;2.95;2.65;;;;;;;;;;7382453;19;20183;-78
2022/05/28 10:45:53;;;;;;;2.30;2.10;;;;;;;;;;7382331;19;20174;-78
2022/05/28 10:48:42;;;;;;;2.95;2.40;;;;;;;;;;7384720;19;20129;-78
2022/05/28 10:51:11;;;;;;;2.03;1.80;;;;;;;;;;7382357;19;20153;-78
2022/05/28 10:53:37;;;;;;;3.35;2.58;;;;;;;;;;7383577;19;20149;-78
2022/05/28 10:56:22;;;;;;;3.85;2.35;;;;;;;;;;7380332;19;20186;-78
2022/05/28 10:59:00;;;;;;;5.55;2.20;;;;;;;;;;7380301;19;20151;-78
2022/05/28 11:01:29;;;;;;;3.50;2.00;;;;;;;;;;7388970;19;20740;-78
2022/05/28 11:04:14;;;;;;;3.40;2.15;;;;;;;;;;7387423;19;20479;-79
2022/05/28 11:06:58;;;;;;;5.47;2.20;;;;;;;;;;7385212;19;20156;-79
2022/05/28 11:09:30;;;;;;;27.92;11.73;;;;;;;;;;7380729;19;20129;-80
2022/05/28 11:12:02;;;;;;;2.88;2.33;;;;;;;;;;7387721;19;20141;-79
2022/05/28 11:14:36;;;;;;;4.10;1.80;;;;;;;;;;7385483;19;20228;-79
2022/05/28 11:17:08;;;;;;;4.97;2.42;;;;;;;;;;7385936;19;20173;-78
2022/05/28 11:19:46;;;;;;;4.47;2.00;;;;;;;;;;7387943;19;20144;-78
2022/05/28 11:22:15;;;;;;;2.80;2.03;;;;;;;;;;7382977;19;20148;-79
2022/05/28 11:24:55;;;;;;;3.10;2.25;;;;;;;;;;7390520;19;20129;-78
2022/05/28 11:27:30;;;;;;;2.25;2.00;;;;;;;;;;7388420;19;20571;-78
2022/05/28 11:30:12;;;;;;;2.97;2.60;;;;;;;;;;7394888;19;20216;-78
2022/05/28 11:32:58;;;;;;;2.85;2.38;;;;;;;;;;7402634;19;20149;-79
2022/05/28 11:35:37;;;;;;;3.03;2.20;;;;;;;;;;7385083;19;20183;-79
2022/05/28 11:38:12;;;;;;;2.40;2.10;;;;;;;;;;7386636;19;20129;-79
2022/05/28 11:40:45;;;;;;;4.32;1.95;;;;;;;;;;7389009;19;20152;-78
2022/05/28 11:43:13;;;;;;;2.00;1.50;;;;;;;;;;7379148;19;20626;-80
2022/05/28 11:45:58;;;;;;;2.70;1.90;;;;;;;;;;7384992;19;20240;-79
2022/05/28 11:51:27;;;;;;;3.25;2.05;;;;;;;;;;7383120;19;20157;-78
2022/05/28 11:51:30;;;;;;;2.42;1.98;;;;;;;;;;7387370;19;20611;-79
2022/05/28 11:54:04;;;;;;;2.63;1.80;;;;;;;;;;7387739;19;20955;-78
2022/05/28 11:56:30;;;;;;;3.67;1.95;;;;;;;;;;7371205;19;20680;-78
2022/05/28 11:58:58;;;;;;;4.60;2.35;;;;;;;;;;7382213;19;20148;-79
2022/05/28 12:01:27;;;;;;;3.53;2.08;;;;;;;;;;7378505;19;20156;-79
2022/05/28 12:03:53;;;;;;;2.65;1.70;;;;;;;;;;7383405;19;20502;-79
2022/05/28 12:06:23;;;;;;;2.05;1.70;;;;;;;;;;7388306;19;20163;-79
2022/05/28 12:08:58;;;;;;;2.97;2.20;;;;;;;;;;7386278;19;20133;-78
2022/05/28 12:11:34;;;;;;;5.03;1.90;;;;;;;;;;7390305;19;20488;-78
2022/05/28 12:14:01;;;;;;;2.72;1.92;;;;;;;;;;7390439;19;20155;-79
2022/05/28 12:16:31;;;;;;;2.20;1.95;;;;;;;;;;7390684;19;20148;-78
2022/05/28 12:19:17;;;;;;;3.20;2.00;;;;;;;;;;7391810;19;20136;-78
2022/05/28 12:21:45;;;;;;;2.50;2.30;;;;;;;;;;7390991;19;20133;-78
2022/05/28 12:24:12;;;;;;;2.58;2.38;;;;;;;;;;7391966;19;20144;-79
2022/05/28 12:27:07;;;;;;;2.58;2.00;;;;;;;;;;7388385;19;20180;-78
2022/05/28 12:29:54;;;;;;;3.70;2.10;;;;;;;;;;7391731;19;20609;-80
2022/05/28 12:32:21;;;;;;;5.00;2.10;;;;;;;;;;7390022;19;20220;-79
2022/05/28 12:35:10;;;;;;;2.42;2.05;;;;;;;;;;7390951;19;20149;-79
2022/05/28 12:37:36;;;;;;;5.00;2.30;;;;;;;;;;7388947;19;20544;-80
2022/05/28 12:40:04;;;;;;;2.78;2.05;;;;;;;;;;7392382;19;20225;-80
2022/05/28 12:42:30;;;;;;;2.40;1.77;;;;;;;;;;7389377;19;20132;-79
2022/05/28 12:44:56;;;;;;;3.67;1.92;;;;;;;;;;7393031;19;20133;-79
2022/05/28 12:47:31;;;;;;;3.35;2.38;;;;;;;;;;7392516;19;20140;-79
2022/05/28 12:49:57;;;;;;;3.03;2.20;;;;;;;;;;7387252;19;20148;-79
2022/05/28 12:52:37;;;;;;;4.60;2.20;;;;;;;;;;7389121;19;20218;-79
2022/05/28 12:55:29;;;;;;;4.28;2.05;;;;;;;;;;7388073;19;20172;-80
2022/05/28 12:58:01;;;;;;;4.53;2.67;;;;;;;;;;7391782;19;20175;-79
2022/05/28 13:00:28;;;;;;;4.47;1.90;;;;;;;;;;7393456;19;20184;-79
2022/05/28 13:02:55;;;;;;;4.38;2.30;;;;;;;;;;7392817;19;20176;-79
2022/05/28 13:05:30;;;;;;;3.33;2.10;;;;;;;;;;7388914;19;20172;-79
2022/05/28 13:07:58;;;;;;;2.85;2.15;;;;;;;;;;7389406;19;20595;-79
2022/05/28 13:10:28;;;;;;;3.20;2.08;;;;;;;;;;7387791;19;20129;-79
2022/05/28 13:12:59;;;;;;;3.45;2.40;;;;;;;;;;7393737;19;20600;-79
2022/05/28 13:15:44;;;;;;;4.82;2.10;;;;;;;;;;7390437;19;20188;-81
2022/05/28 13:18:29;;;;;;;2.55;1.95;;;;;;;;;;7391507;19;20155;-81
2022/05/28 13:20:55;;;;;;;5.95;2.00;;;;;;;;;;7424050;19;20145;-78
2022/05/28 13:23:39;;;;;;;3.03;2.10;;;;;;;;;;7421105;19;20134;-78
2022/05/28 13:26:08;;;;;;;4.32;2.15;;;;;;;;;;7420445;19;20140;-79
2022/05/28 13:28:47;;;;;;;5.20;2.17;;;;;;;;;;7422483;19;20143;-79
2022/05/28 13:31:14;;;;;;;3.20;2.20;;;;;;;;;;7400332;19;20152;-80
2022/05/28 13:33:40;;;;;;;3.53;2.40;;;;;;;;;;7388411;19;20152;-79
2022/05/28 13:36:07;;;;;;;4.18;2.22;;;;;;;;;;7386176;19;20180;-79
2022/05/28 13:38:42;;;;;;;4.70;2.40;;;;;;;;;;7386322;19;20147;-79
2022/05/28 13:41:10;;;;;;;4.18;2.10;;;;;;;;;;7388351;19;20139;-79
2022/05/28 13:43:38;;;;;;;2.97;2.00;;;;;;;;;;7386974;19;20821;-79
2022/05/28 13:46:05;;;;;;;3.97;2.03;;;;;;;;;;7387459;19;20156;-79
2022/05/28 13:48:34;;;;;;;4.55;2.08;;;;;;;;;;7381522;19;20164;-79
2022/05/28 13:51:02;;;;;;;3.08;2.08;;;;;;;;;;7379225;19;20144;-79
2022/05/28 13:53:32;;;;;;;5.15;2.08;;;;;;;;;;7380015;19;20136;-79
2022/05/28 13:55:59;;;;;;;3.65;2.45;;;;;;;;;;7378803;19;20169;-79
2022/05/28 13:58:26;;;;;;;2.88;1.90;;;;;;;;;;7381431;19;20133;-79
2022/05/28 14:00:56;;;;;;;3.50;2.13;;;;;;;;;;7385303;19;20144;-78
2022/05/28 14:03:27;;;;;;;3.40;1.73;;;;;;;;;;7376947;19;20152;-78
2022/05/28 14:05:54;;;;;;;3.78;1.90;;;;;;;;;;7383053;19;20149;-79
2022/05/28 14:08:22;;;;;;;3.92;2.17;;;;;;;;;;7382820;19;20175;-79
2022/05/28 14:10:48;;;;;;;3.65;2.10;;;;;;;;;;7380139;19;20145;-78
2022/05/28 14:13:24;;;;;;;3.08;1.98;;;;;;;;;;7367582;19;20165;-78
2022/05/28 14:15:52;;;;;;;3.95;2.17;;;;;;;;;;7381189;19;20183;-77
2022/05/28 14:18:20;;;;;;;3.80;2.10;;;;;;;;;;7382244;19;20614;-77
2022/05/28 14:20:46;;;;;;;3.20;2.40;;;;;;;;;;7381714;19;20584;-77
2022/05/28 14:23:12;;;;;;;2.95;2.10;;;;;;;;;;7374616;19;20148;-78
2022/05/28 14:25:39;;;;;;;4.95;3.10;;;;;;;;;;7373028;19;20184;-79
2022/05/28 14:28:07;;;;;;;5.25;2.33;;;;;;;;;;7387800;19;20133;-79
2022/05/28 14:30:34;;;;;;;6.03;2.03;;;;;;;;;;7372154;19;20156;-78
2022/05/28 14:33:01;;;;;;;3.30;2.10;;;;;;;;;;7384148;19;20654;-78
2022/05/28 14:35:46;;;;;;;4.15;2.17;;;;;;;;;;7378648;19;20189;-79
2022/05/28 14:38:13;;;;;;;5.20;2.13;;;;;;;;;;7386197;19;20571;-78
2022/05/28 14:40:41;;;;;;;4.97;2.50;;;;;;;;;;7384051;19;20156;-80
2022/05/28 14:43:08;;;;;;;3.85;1.80;;;;;;;;;;7383891;19;20129;-80
2022/05/28 14:45:35;;;;;;;3.35;1.90;;;;;;;;;;7390008;19;20671;-81
2022/05/28 14:48:03;;;;;;;5.68;2.60;;;;;;;;;;7413537;19;20125;-80
2022/05/28 14:50:30;;;;;;;3.30;2.30;;;;;;;;;;7414226;19;20488;-80
2022/05/28 14:52:57;;;;;;;4.18;2.33;;;;;;;;;;7390748;19;20136;-81
2022/05/28 14:55:31;;;;;;;3.65;2.20;;;;;;;;;;7386788;19;20804;-81
2022/05/28 14:58:15;;;;;;;2.95;1.95;;;;;;;;;;7384493;19;20173;-81
2022/05/28 15:00:41;;;;;;;5.20;2.22;;;;;;;;;;7383765;19;20767;-81
2022/05/28 15:03:12;;;;;;;7.55;2.50;;;;;;;;;;7383198;19;20152;-81
2022/05/28 15:05:38;;;;;;;3.47;2.10;;;;;;;;;;7385359;19;20149;-81
2022/05/28 15:08:08;;;;;;;3.88;1.77;;;;;;;;;;7384936;19;20652;-80
2022/05/28 15:10:42;;;;;;;4.85;2.00;;;;;;;;;;7389494;19;20160;-80
2022/05/28 15:13:14;;;;;;;5.78;2.63;;;;;;;;;;7390492;19;20147;-80
2022/05/28 15:15:40;;;;;;;4.65;2.35;;;;;;;;;;7396412;19;20176;-80
2022/05/28 15:18:06;;;;;;;5.75;2.25;;;;;;;;;;7402230;19;20656;-80
2022/05/28 15:20:32;;;;;;;5.20;2.20;;;;;;;;;;7397875;19;20137;-80
2022/05/28 15:22:58;;;;;;;2.40;1.90;;;;;;;;;;7396706;19;20136;-79
2022/05/28 15:25:24;;;;;;;4.85;4.13;;;;;;;;;;7390703;19;20209;-80
2022/05/28 15:27:50;;;;;;;7.28;2.72;;;;;;;;;;7413391;19;20120;-80
2022/05/28 15:30:16;;;;;;;2.50;2.00;;;;;;;;;;7420885;19;20660;-80
2022/05/28 15:32:42;;;;;;;4.28;1.60;;;;;;;;;;7422279;19;20117;-80
2022/05/28 15:38:08;;;;;;;3.80;2.15;;;;;;;;;;7391804;19;20135;-79
2022/05/28 15:40:34;;;;;;;2.75;1.90;;;;;;;;;;7391049;19;20714;-79
2022/05/28 15:43:01;;;;;;;5.25;1.90;;;;;;;;;;7387410;19;20133;-79
2022/05/28 15:45:27;;;;;;;3.83;2.25;;;;;;;;;;7412320;19;20185;-79
2022/05/28 15:47:57;;;;;;;2.80;2.35;;;;;;;;;;7420367;19;20129;-79
2022/05/28 15:50:23;;;;;;;3.13;2.40;;;;;;;;;;7421726;19;20125;-81
2022/05/28 15:52:50;;;;;;;3.25;1.90;;;;;;;;;;7412710;19;20507;-80
2022/05/28 15:55:17;;;;;;;4.57;2.00;;;;;;;;;;7387057;19;20172;-80
2022/05/28 15:57:47;;;;;;;4.50;2.10;;;;;;;;;;7392603;19;20125;-80
2022/05/28 16:00:13;;;;;;;5.43;2.10;;;;;;;;;;7390332;19;20160;-80
2022/05/28 16:02:40;;;;;;;5.68;1.85;;;;;;;;;;7392770;19;20622;-80
2022/05/28 16:05:14;;;;;;;3.17;1.77;;;;;;;;;;7393796;19;20176;-80
2022/05/28 16:07:41;;;;;;;3.03;2.00;;;;;;;;;;7394025;19;20384;-80
2022/05/28 16:10:07;;;;;;;5.70;1.88;;;;;;;;;;7391166;19;20219;-80
2022/05/28 16:12:33;;;;;;;2.90;1.48;;;;;;;;;;7391551;19;20153;-80
2022/05/28 16:14:59;;;;;;;3.83;2.13;;;;;;;;;;7392977;19;20177;-80
2022/05/28 16:17:25;;;;;;;4.57;1.88;;;;;;;;;;7392960;19;20578;-81
2022/05/28 16:19:51;;;;;;;5.22;2.10;;;;;;;;;;7394744;19;20733;-80
2022/05/28 16:22:18;;;;;;;3.05;1.65;;;;;;;;;;7390884;19;20132;-80
2022/05/28 16:24:44;;;;;;;3.75;2.53;;;;;;;;;;7391495;19;20155;-80
2022/05/28 16:27:10;;;;;;;3.25;1.83;;;;;;;;;;7381757;19;20216;-80
2022/05/28 16:29:36;;;;;;;2.95;1.90;;;;;;;;;;7386113;19;20598;-81
2022/05/28 16:32:02;;;;;;;4.13;2.50;;;;;;;;;;7384525;19;20191;-81
2022/05/28 16:34:28;;;;;;;5.80;3.58;;;;;;;;;;7381882;19;20208;-81
2022/05/28 16:36:54;;;;;;;5.18;2.30;;;;;;;;;;7382841;19;20513;-81
2022/05/28 16:39:21;;;;;;;4.55;2.22;;;;;;;;;;7381757;19;20132;-81
2022/05/28 16:41:47;;;;;;;3.65;2.00;;;;;;;;;;7387516;19;20129;-80
2022/05/28 16:44:15;;;;;;;2.03;1.70;;;;;;;;;;7389285;19;20161;-81
2022/05/28 16:46:41;;;;;;;4.07;2.22;;;;;;;;;;7389619;19;20291;-80
2022/05/28 16:49:07;;;;;;;4.32;2.83;;;;;;;;;;7396899;19;20156;-80
2022/05/28 16:51:33;;;;;;;3.95;2.05;;;;;;;;;;7394249;19;20141;-80
2022/05/28 16:53:59;;;;;;;5.30;2.00;;;;;;;;;;7385120;19;20586;-81
2022/05/28 16:56:26;;;;;;;3.97;2.10;;;;;;;;;;7396515;19;20180;-81
2022/05/28 16:58:53;;;;;;;5.68;2.17;;;;;;;;;;7413605;19;20160;-80
2022/05/28 17:01:19;;;;;;;3.38;1.92;;;;;;;;;;7413147;19;20128;-80
2022/05/28 17:03:46;;;;;;;4.13;1.73;;;;;;;;;;7419287;19;20563;-81
2022/05/28 17:06:15;;;;;;;3.60;2.10;;;;;;;;;;7417333;19;20173;-81
2022/05/28 17:08:43;;;;;;;3.85;2.28;;;;;;;;;;7410729;19;20235;-81
2022/05/28 17:11:10;;;;;;;3.63;2.10;;;;;;;;;;7417013;19;20347;-82
2022/05/28 17:13:36;;;;;;;3.15;1.77;;;;;;;;;;7415289;19;20176;-82
2022/05/28 17:16:02;;;;;;;9.23;6.47;;;;;;;;;;7418512;19;20149;-82
2022/05/28 17:18:28;;;;;;;3.55;2.58;;;;;;;;;;7413932;19;20121;-81
2022/05/28 17:20:54;;;;;;;3.67;2.28;;;;;;;;;;7412690;19;20726;-81
2022/05/28 17:23:20;;;;;;;5.05;1.90;;;;;;;;;;7409349;19;20180;-82
2022/05/28 17:25:47;;;;;;;3.83;2.15;;;;;;;;;;7391067;19;20238;-80
2022/05/28 17:28:14;;;;;;;6.10;2.20;;;;;;;;;;7392479;19;20144;-79
2022/05/28 17:30:41;;;;;;;2.60;1.90;;;;;;;;;;7374403;19;20147;-80
2022/05/28 17:33:09;;;;;;;5.45;1.33;;;;;;;;;;7378049;19;20661;-79
2022/05/28 17:35:36;;;;;;;4.03;1.70;;;;;;;;;;7388226;19;20175;-79
2022/05/28 17:38:03;;;;;;;5.80;2.03;;;;;;;;;;7385286;19;20726;-79
2022/05/28 17:40:32;;;;;;;4.82;2.10;;;;;;;;;;7384638;19;20180;-79
2022/05/28 17:42:58;;;;;;;3.38;1.40;;;;;;;;;;7384177;19;20758;-80
2022/05/28 17:45:24;;;;;;;1.95;1.27;;;;;;;;;;7378430;19;20172;-80
2022/05/28 17:47:51;;;;;;;3.03;1.52;;;;;;;;;;7383695;19;20147;-80
2022/05/28 17:50:18;;;;;;;3.88;1.65;;;;;;;;;;7382591;19;20264;-79
2022/05/28 17:52:44;;;;;;;3.03;1.60;;;;;;;;;;7383975;19;20131;-79
2022/05/28 17:55:11;;;;;;;3.33;1.40;;;;;;;;;;7385871;19;20642;-80
2022/05/28 17:57:37;;;;;;;3.33;1.65;;;;;;;;;;7389734;19;20587;-79
2022/05/28 18:00:04;;;;;;;5.45;1.75;;;;;;;;;;7390865;19;20156;-78
2022/05/28 18:02:31;;;;;;;4.05;1.70;;;;;;;;;;7403380;19;20129;-79
2022/05/28 18:04:58;;;;;;;3.97;1.60;;;;;;;;;;7406185;19;20183;-79
2022/05/28 18:07:25;;;;;;;6.03;1.50;;;;;;;;;;7387319;19;20157;-79
2022/05/28 18:09:51;;;;;;;2.28;1.30;;;;;;;;;;7379400;19;20140;-79
2022/05/28 18:12:17;;;;;;;3.10;1.70;;;;;;;;;;7370006;19;20152;-78
2022/05/28 18:14:43;;;;;;;6.78;1.60;;;;;;;;;;7388504;19;20121;-78
2022/05/28 18:17:14;;;;;;;5.07;1.45;;;;;;;;;;7385699;19;20789;-78
2022/05/28 18:19:41;;;;;;;3.28;1.25;;;;;;;;;;7380554;19;20172;-78
2022/05/28 18:22:08;;;;;;;4.15;1.30;;;;;;;;;;7383718;19;20162;-80
2022/05/28 18:24:35;;;;;;;3.83;1.42;;;;;;;;;;7383178;19;20150;-77
2022/05/28 18:27:06;;;;;;;2.55;1.65;;;;;;;;;;7378709;19;20634;-81
